createdAt,value
2019-03-30T00:01:19.115Z,65.13
2019-03-30T00:03:47.692Z,66.33
2019-03-30T00:06:16.299Z,64.23
2019-03-30T00:08:44.902Z,71.07
2019-03-30T00:11:13.502Z,71.50
2019-03-30T00:13:42.082Z,68.73
2019-03-30T00:16:10.744Z,72.80
2019-03-30T00:18:41.299Z,69.30
2019-03-30T00:21:09.975Z,72.37
2019-03-30T00:23:38.628Z,69.33
2019-03-30T00:26:07.493Z,70.37
2019-03-30T00:28:36.436Z,71.93
2019-03-30T00:31:05.101Z,70.20
2019-03-30T00:33:33.669Z,70.17
2019-03-30T00:36:02.253Z,67.07
2019-03-30T00:38:31.097Z,67.90
2019-03-30T00:41:00.037Z,68.00
2019-03-30T00:43:28.863Z,66.60
2019-03-30T00:45:57.414Z,67.13
2019-03-30T00:48:26.082Z,67.00
2019-03-30T00:50:54.644Z,64.53
2019-03-30T00:53:23.244Z,64.93
2019-03-30T00:55:51.831Z,66.20
2019-03-30T00:58:20.432Z,65.37
2019-03-30T01:00:49.372Z,66.37
2019-03-30T01:03:17.923Z,64.50
2019-03-30T01:05:46.659Z,63.57
2019-03-30T01:08:15.229Z,64.90
2019-03-30T01:10:44.186Z,65.00
2019-03-30T01:13:12.736Z,62.63
2019-03-30T01:15:41.655Z,61.33
2019-03-30T01:18:10.220Z,64.00
2019-03-30T01:20:38.811Z,65.10
2019-03-30T01:23:07.550Z,63.87
2019-03-30T01:25:36.482Z,64.57
2019-03-30T01:28:05.126Z,62.67
2019-03-30T01:30:33.715Z,65.73
2019-03-30T01:33:02.297Z,63.10
2019-03-30T01:35:30.877Z,62.67
2019-03-30T01:37:59.448Z,59.50
2019-03-30T01:40:28.359Z,60.27
2019-03-30T01:42:57.455Z,62.83
2019-03-30T01:45:26.017Z,66.70
2019-03-30T01:47:54.617Z,69.07
2019-03-30T01:50:23.545Z,62.97
2019-03-30T01:52:52.138Z,65.23
2019-03-30T01:55:20.776Z,64.97
2019-03-30T01:57:49.349Z,67.77
2019-03-30T02:00:18.790Z,63.77
2019-03-30T02:02:47.463Z,64.03
2019-03-30T02:05:16.112Z,62.57
2019-03-30T02:07:44.698Z,61.90
2019-03-30T02:10:15.355Z,62.27
2019-03-30T02:12:44.033Z,63.63
2019-03-30T02:15:12.791Z,57.13
2019-03-30T02:17:41.356Z,60.70
2019-03-30T02:20:13.037Z,63.47
2019-03-30T02:22:41.922Z,63.50
2019-03-30T02:25:10.726Z,61.33
2019-03-30T02:27:39.307Z,59.50
2019-03-30T02:30:08.116Z,61.20
2019-03-30T02:32:36.689Z,63.17
2019-03-30T02:35:06.713Z,60.30
2019-03-30T02:37:35.359Z,61.43
2019-03-30T02:40:06.056Z,59.60
2019-03-30T02:42:34.553Z,61.93
2019-03-30T02:45:03.283Z,59.43
2019-03-30T02:47:31.853Z,62.80
2019-03-30T02:50:00.594Z,62.40
2019-03-30T02:52:29.326Z,62.67
2019-03-30T02:54:57.889Z,60.17
2019-03-30T02:57:26.545Z,60.27
2019-03-30T02:59:55.130Z,60.90
2019-03-30T03:02:23.691Z,60.83
2019-03-30T03:04:52.329Z,65.13
2019-03-30T03:07:20.923Z,61.83
2019-03-30T03:09:49.480Z,63.90
2019-03-30T03:12:18.097Z,63.50
2019-03-30T03:14:46.676Z,60.70
2019-03-30T03:17:15.662Z,59.67
2019-03-30T03:19:44.388Z,59.43
2019-03-30T03:22:12.966Z,58.47
2019-03-30T03:24:41.529Z,60.47
2019-03-30T03:27:10.100Z,58.20
2019-03-30T03:29:43.169Z,59.30
2019-03-30T03:32:09.044Z,57.07
2019-03-30T03:34:37.653Z,54.70
2019-03-30T03:37:06.510Z,59.67
2019-03-30T03:39:35.522Z,55.77
2019-03-30T03:42:04.227Z,59.27
2019-03-30T03:44:33.202Z,56.07
2019-03-30T03:47:01.919Z,57.37
2019-03-30T03:49:30.497Z,55.90
2019-03-30T03:51:59.624Z,57.87
2019-03-30T03:54:28.651Z,54.07
2019-03-30T03:56:58.476Z,56.17
2019-03-30T03:59:27.812Z,52.73
2019-03-30T04:01:57.126Z,56.17
2019-03-30T04:04:27.400Z,55.73
2019-03-30T04:07:03.247Z,52.37
2019-03-30T04:09:34.369Z,54.67
2019-03-30T04:12:06.014Z,54.07
2019-03-30T04:14:37.638Z,56.47
2019-03-30T04:17:06.269Z,58.00
2019-03-30T04:19:34.864Z,55.20
2019-03-30T04:22:03.451Z,57.70
2019-03-30T04:24:32.028Z,54.83
2019-03-30T04:27:00.622Z,54.63
2019-03-30T04:29:29.211Z,58.67
2019-03-30T04:31:58.115Z,59.57
2019-03-30T04:34:26.687Z,59.60
2019-03-30T04:36:55.332Z,56.10
2019-03-30T04:39:23.901Z,55.27
2019-03-30T04:41:52.502Z,57.97
2019-03-30T04:44:21.070Z,58.27
2019-03-30T04:46:49.651Z,59.40
2019-03-30T04:49:18.227Z,55.43
2019-03-30T04:51:56.910Z,56.27
2019-03-30T04:54:17.058Z,56.17
2019-03-30T04:56:45.651Z,54.10
2019-03-30T04:59:14.233Z,55.73
2019-03-30T05:01:42.887Z,56.20
2019-03-30T05:04:11.461Z,52.97
2019-03-30T05:06:40.320Z,52.03
2019-03-30T05:09:08.888Z,56.57
2019-03-30T05:11:37.465Z,54.77
2019-03-30T05:14:06.040Z,52.07
2019-03-30T05:16:34.631Z,55.13
2019-03-30T05:19:03.470Z,52.83
2019-03-30T05:21:32.081Z,47.90
2019-03-30T05:24:00.645Z,53.80
2019-03-30T05:26:29.229Z,50.77
2019-03-30T05:28:57.859Z,45.93
2019-03-30T05:31:26.458Z,52.47
2019-03-30T05:33:55.004Z,51.87
2019-03-30T05:36:23.611Z,52.73
2019-03-30T05:38:52.152Z,48.57
2019-03-30T05:41:20.748Z,53.20
2019-03-30T05:43:49.312Z,54.50
2019-03-30T05:46:17.905Z,60.70
2019-03-30T05:48:46.557Z,57.77
2019-03-30T05:51:15.062Z,59.23
2019-03-30T05:53:44.013Z,56.17
2019-03-30T05:56:12.622Z,53.73
2019-03-30T05:58:41.182Z,53.07
2019-03-30T06:01:09.772Z,55.07
2019-03-30T06:03:38.788Z,53.17
2019-03-30T06:06:07.518Z,54.23
2019-03-30T06:08:36.099Z,54.97
2019-03-30T06:11:04.688Z,56.37
2019-03-30T06:13:33.329Z,52.30
2019-03-30T06:16:01.929Z,52.73
2019-03-30T06:18:30.523Z,49.20
2019-03-30T06:20:59.151Z,51.10
2019-03-30T06:23:27.823Z,51.23
2019-03-30T06:25:56.586Z,51.87
2019-03-30T06:28:25.231Z,51.07
2019-03-30T06:30:53.830Z,52.83
2019-03-30T06:33:22.851Z,53.87
2019-03-30T06:35:51.429Z,54.33
2019-03-30T06:38:20.020Z,53.97
2019-03-30T06:40:48.592Z,61.67
2019-03-30T06:43:17.211Z,68.50
2019-03-30T06:45:45.768Z,65.50
2019-03-30T06:48:14.357Z,66.33
2019-03-30T06:50:43.023Z,60.03
2019-03-30T06:53:11.658Z,68.07
2019-03-30T06:55:40.250Z,67.13
2019-03-30T06:58:08.822Z,60.90
2019-03-30T07:00:37.564Z,61.53
2019-03-30T07:03:07.547Z,60.63
2019-03-30T07:05:41.216Z,59.03
2019-03-30T07:08:12.382Z,59.87
2019-03-30T07:10:42.545Z,60.73
2019-03-30T07:13:11.182Z,60.83
2019-03-30T07:15:46.611Z,60.23
2019-03-30T07:18:16.633Z,59.50
2019-03-30T07:20:45.782Z,61.17
2019-03-30T07:23:14.436Z,60.47
2019-03-30T07:25:43.008Z,62.17
2019-03-30T07:28:11.606Z,57.63
2019-03-30T07:30:40.239Z,62.77
2019-03-30T07:33:08.830Z,61.83
2019-03-30T07:35:37.545Z,60.37
2019-03-30T07:38:06.415Z,59.37
2019-03-30T07:40:35.020Z,58.60
2019-03-30T07:43:03.664Z,58.60
2019-03-30T07:45:32.821Z,55.73
2019-03-30T07:48:01.491Z,56.63
2019-03-30T07:50:30.156Z,55.87
2019-03-30T07:52:58.890Z,52.70
2019-03-30T07:55:27.583Z,51.00
2019-03-30T07:57:56.590Z,50.97
2019-03-30T08:00:30.567Z,50.63
2019-03-30T08:02:55.591Z,51.30
2019-03-30T08:05:24.668Z,50.80
2019-03-30T08:07:53.278Z,52.27
2019-03-30T08:10:21.931Z,51.57
2019-03-30T08:12:50.513Z,50.33
2019-03-30T08:15:19.108Z,49.83
2019-03-30T08:17:47.675Z,53.87
2019-03-30T08:20:16.691Z,51.53
2019-03-30T08:22:45.409Z,51.10
2019-03-30T08:25:15.098Z,51.70
2019-03-30T08:27:43.791Z,51.90
2019-03-30T08:30:13.208Z,53.20
2019-03-30T08:32:41.875Z,52.63
2019-03-30T08:35:10.689Z,52.83
2019-03-30T08:37:39.279Z,52.67
2019-03-30T08:40:08.286Z,53.27
2019-03-30T08:42:36.891Z,53.77
2019-03-30T08:45:07.003Z,52.13
2019-03-30T08:47:35.972Z,52.57
2019-03-30T08:50:09.362Z,53.23
2019-03-30T08:52:37.995Z,48.97
2019-03-30T08:55:08.404Z,50.40
2019-03-30T08:57:37.122Z,49.13
2019-03-30T09:00:07.829Z,45.80
2019-03-30T09:02:36.465Z,48.20
2019-03-30T09:05:07.677Z,46.80
2019-03-30T09:07:36.299Z,44.20
2019-03-30T09:10:07.608Z,42.70
2019-03-30T09:12:36.232Z,42.53
2019-03-30T09:15:06.552Z,43.90
2019-03-30T09:17:37.274Z,42.10
2019-03-30T09:20:07.471Z,42.13
2019-03-30T09:22:36.189Z,45.07
2019-03-30T09:25:06.370Z,44.87
2019-03-30T09:27:34.973Z,43.83
2019-03-30T09:30:04.444Z,42.93
2019-03-30T09:32:33.069Z,42.77
2019-03-30T09:35:01.648Z,44.43
2019-03-30T09:37:30.241Z,42.90
2019-03-30T09:39:59.739Z,42.93
2019-03-30T09:42:28.667Z,42.57
2019-03-30T09:44:57.408Z,40.27
2019-03-30T09:47:25.982Z,37.30
2019-03-30T09:49:54.653Z,36.47
2019-03-30T09:52:23.213Z,37.33
2019-03-30T09:54:51.797Z,38.03
2019-03-30T09:57:20.393Z,37.40
2019-03-30T09:59:48.957Z,37.70
2019-03-30T10:02:17.547Z,36.30
2019-03-30T10:04:46.117Z,36.57
2019-03-30T10:07:14.773Z,31.13
2019-03-30T10:09:43.411Z,29.23
2019-03-30T10:12:11.996Z,29.07
2019-03-30T10:14:40.549Z,27.50
2019-03-30T10:17:09.129Z,28.97
2019-03-30T10:19:37.789Z,31.20
2019-03-30T10:22:06.377Z,25.57
2019-03-30T10:24:38.228Z,24.40
2019-03-30T10:27:05.149Z,25.07
2019-03-30T10:29:33.741Z,25.37
2019-03-30T10:32:02.297Z,27.73
2019-03-30T10:34:30.900Z,28.03
2019-03-30T10:36:59.937Z,26.73
2019-03-30T10:39:28.515Z,27.27
2019-03-30T10:41:57.078Z,27.20
2019-03-30T10:44:25.677Z,23.83
2019-03-30T10:46:54.348Z,23.60
2019-03-30T10:49:22.980Z,23.90
2019-03-30T10:51:54.235Z,25.40
2019-03-30T10:54:21.767Z,24.27
2019-03-30T10:56:50.297Z,23.13
2019-03-30T10:59:19.173Z,23.30
2019-03-30T11:01:47.845Z,25.50
2019-03-30T11:04:16.419Z,27.73
2019-03-30T11:06:45.023Z,22.17
2019-03-30T11:09:13.670Z,22.63
2019-03-30T11:11:42.612Z,25.17
2019-03-30T11:14:11.258Z,25.73
2019-03-30T11:16:39.837Z,24.53
2019-03-30T11:19:08.477Z,21.80
2019-03-30T11:21:37.366Z,21.33
2019-03-30T11:24:06.809Z,19.43
2019-03-30T11:26:35.885Z,22.53
2019-03-30T11:29:04.535Z,22.07
2019-03-30T11:31:33.173Z,22.07
2019-03-30T11:34:01.764Z,21.00
2019-03-30T11:36:30.419Z,21.43
2019-03-30T11:38:58.980Z,23.90
2019-03-30T11:41:27.563Z,21.67
2019-03-30T11:43:56.140Z,20.33
2019-03-30T11:46:24.748Z,20.53
2019-03-30T11:48:53.375Z,19.93
2019-03-30T11:51:21.954Z,23.13
2019-03-30T11:53:50.512Z,21.47
2019-03-30T11:56:19.018Z,17.97
2019-03-30T11:58:47.671Z,19.77
2019-03-30T12:01:16.418Z,19.87
2019-03-30T12:03:45.069Z,18.40
2019-03-30T12:06:14.006Z,20.90
2019-03-30T12:08:42.599Z,21.27
2019-03-30T12:11:11.279Z,21.70
2019-03-30T12:13:39.931Z,23.37
2019-03-30T12:16:08.606Z,24.70
2019-03-30T12:18:37.283Z,23.67
2019-03-30T12:21:06.238Z,24.23
2019-03-30T12:23:34.839Z,26.50
2019-03-30T12:26:03.542Z,25.33
2019-03-30T12:28:32.419Z,24.23
2019-03-30T12:31:01.413Z,24.13
2019-03-30T12:33:30.089Z,24.73
2019-03-30T12:35:58.718Z,22.80
2019-03-30T12:38:27.315Z,23.37
2019-03-30T12:40:55.882Z,22.43
2019-03-30T12:43:24.543Z,22.67
2019-03-30T12:45:53.118Z,23.27
2019-03-30T12:48:21.763Z,22.67
2019-03-30T12:50:50.323Z,23.77
2019-03-30T12:53:18.919Z,23.23
2019-03-30T12:55:49.384Z,18.50
2019-03-30T12:58:17.730Z,20.83
2019-03-30T13:00:46.258Z,20.43
2019-03-30T13:03:15.208Z,20.40
2019-03-30T13:05:43.807Z,20.57
2019-03-30T13:08:12.792Z,21.30
2019-03-30T13:10:41.397Z,21.93
2019-03-30T13:13:10.045Z,21.63
2019-03-30T13:15:38.621Z,22.43
2019-03-30T13:18:07.185Z,21.93
2019-03-30T13:20:36.051Z,21.97
2019-03-30T13:23:04.623Z,23.00
2019-03-30T13:25:33.636Z,23.47
2019-03-30T13:28:02.194Z,22.93
2019-03-30T13:30:30.946Z,21.03
2019-03-30T13:32:59.508Z,21.17
2019-03-30T13:35:28.065Z,21.20
2019-03-30T13:37:56.689Z,20.50
2019-03-30T13:40:25.372Z,21.20
2019-03-30T13:42:53.978Z,40.03
2019-03-30T13:45:22.679Z,44.13
2019-03-30T13:47:51.623Z,40.63
2019-03-30T13:50:20.485Z,47.23
2019-03-30T13:52:49.030Z,47.70
2019-03-30T13:55:17.590Z,43.13
2019-03-30T13:57:46.250Z,44.57
2019-03-30T14:00:14.953Z,38.70
2019-03-30T14:02:44.149Z,35.77
2019-03-30T14:05:13.041Z,36.53
2019-03-30T14:07:41.610Z,42.83
2019-03-30T14:10:10.834Z,43.03
2019-03-30T14:12:39.759Z,41.17
2019-03-30T14:15:09.534Z,43.33
2019-03-30T14:17:38.485Z,41.17
2019-03-30T14:20:07.918Z,43.10
2019-03-30T14:22:37.367Z,41.70
2019-03-30T14:25:06.862Z,38.97
2019-03-30T14:27:35.466Z,36.40
2019-03-30T14:30:05.386Z,36.60
2019-03-30T14:32:33.965Z,34.87
2019-03-30T14:35:02.611Z,36.20
2019-03-30T14:37:31.219Z,40.53
2019-03-30T14:39:59.729Z,38.23
2019-03-30T14:42:28.330Z,36.83
2019-03-30T14:44:56.886Z,37.83
2019-03-30T14:47:26.243Z,37.43
2019-03-30T14:49:54.744Z,37.50
2019-03-30T14:52:23.447Z,39.00
2019-03-30T14:54:53.306Z,40.37
2019-03-30T14:57:21.968Z,38.13
2019-03-30T14:59:50.535Z,36.97
2019-03-30T15:02:19.185Z,38.87
2019-03-30T15:04:47.882Z,36.20
2019-03-30T15:07:16.885Z,36.67
2019-03-30T15:09:45.512Z,37.40
2019-03-30T15:12:14.178Z,37.90
2019-03-30T15:14:43.269Z,37.80
2019-03-30T15:17:11.856Z,42.13
2019-03-30T15:19:40.416Z,37.50
2019-03-30T15:22:09.318Z,37.80
2019-03-30T15:24:37.989Z,37.40
2019-03-30T15:27:06.662Z,35.40
2019-03-30T15:29:35.658Z,35.50
2019-03-30T15:32:04.359Z,39.13
2019-03-30T15:34:33.041Z,37.93
2019-03-30T15:37:01.765Z,34.63
2019-03-30T15:39:30.365Z,40.90
2019-03-30T15:41:58.994Z,42.57
2019-03-30T15:44:27.622Z,37.13
2019-03-30T15:46:56.148Z,37.77
2019-03-30T15:49:24.788Z,38.73
2019-03-30T15:51:53.517Z,37.90
2019-03-30T15:54:22.074Z,41.87
2019-03-30T15:56:51.091Z,39.33
2019-03-30T15:59:19.673Z,40.07
2019-03-30T16:01:48.381Z,38.37
2019-03-30T16:04:17.136Z,39.67
2019-03-30T16:06:46.053Z,38.77
2019-03-30T16:09:14.791Z,38.47
2019-03-30T16:11:43.391Z,41.73
2019-03-30T16:14:11.969Z,41.43
2019-03-30T16:16:40.554Z,41.50
2019-03-30T16:19:09.122Z,44.57
2019-03-30T16:21:37.718Z,40.83
2019-03-30T16:24:06.372Z,40.93
2019-03-30T16:26:41.831Z,35.97
2019-03-30T16:29:05.306Z,41.73
2019-03-30T16:31:33.913Z,40.83
2019-03-30T16:34:02.517Z,40.97
2019-03-30T16:36:31.092Z,43.00
2019-03-30T16:38:59.707Z,43.87
2019-03-30T16:41:28.381Z,41.13
2019-03-30T16:43:56.970Z,40.47
2019-03-30T16:46:26.029Z,42.17
2019-03-30T16:48:54.675Z,42.40
2019-03-30T16:51:23.255Z,43.47
2019-03-30T16:53:51.883Z,43.80
2019-03-30T16:56:20.576Z,43.00
2019-03-30T16:58:49.146Z,48.97
2019-03-30T17:01:17.712Z,44.10
2019-03-30T17:03:46.322Z,43.93
2019-03-30T17:06:15.250Z,42.63
2019-03-30T17:08:43.851Z,43.37
2019-03-30T17:11:12.421Z,47.93
2019-03-30T17:13:41.000Z,45.40
2019-03-30T17:16:09.583Z,44.53
2019-03-30T17:18:38.164Z,44.20
2019-03-30T17:21:06.791Z,44.00
2019-03-30T17:23:35.383Z,45.30
2019-03-30T17:26:04.021Z,44.57
2019-03-30T17:28:32.593Z,44.60
2019-03-30T17:31:01.183Z,44.23
2019-03-30T17:33:29.761Z,45.53
2019-03-30T17:35:58.404Z,45.33
2019-03-30T17:38:26.971Z,46.10
2019-03-30T17:40:55.623Z,45.47
2019-03-30T17:43:24.214Z,46.27
2019-03-30T17:45:53.157Z,46.70
2019-03-30T17:48:23.018Z,44.90
2019-03-30T17:50:51.578Z,45.43
2019-03-30T17:53:20.122Z,43.97
2019-03-30T17:55:48.734Z,42.90
2019-03-30T17:58:17.295Z,41.70
2019-03-30T18:00:46.104Z,43.00
2019-03-30T18:03:15.016Z,41.03
2019-03-30T18:05:43.668Z,40.47
2019-03-30T18:08:12.308Z,40.70
2019-03-30T18:10:40.978Z,42.37
2019-03-30T18:13:09.570Z,41.60
2019-03-30T18:15:38.589Z,42.80
2019-03-30T18:18:07.226Z,43.73
2019-03-30T18:20:35.863Z,42.57
2019-03-30T18:23:04.604Z,41.70
2019-03-30T18:25:33.175Z,41.37
2019-03-30T18:28:01.785Z,43.30
2019-03-30T18:30:40.756Z,42.80
2019-03-30T18:33:09.478Z,42.27
2019-03-30T18:35:40.342Z,41.37
2019-03-30T18:38:09.077Z,42.57
2019-03-30T18:40:38.972Z,43.63
2019-03-30T18:43:07.637Z,43.17
2019-03-30T18:45:36.655Z,43.00
2019-03-30T18:48:16.150Z,43.37
2019-03-30T18:50:45.969Z,44.47
2019-03-30T18:53:15.685Z,45.27
2019-03-30T18:55:44.275Z,45.13
2019-03-30T18:58:12.915Z,43.53
2019-03-30T19:00:41.655Z,43.60
2019-03-30T19:03:10.210Z,45.10
2019-03-30T19:05:38.800Z,44.07
2019-03-30T19:08:07.380Z,43.60
2019-03-30T19:10:35.960Z,44.40
2019-03-30T19:13:04.540Z,41.53
2019-03-30T19:15:33.129Z,42.90
2019-03-30T19:18:01.763Z,43.63
2019-03-30T19:20:30.441Z,42.93
2019-03-30T19:22:59.089Z,44.97
2019-03-30T19:25:29.681Z,43.80
2019-03-30T19:27:57.936Z,45.80
2019-03-30T19:30:26.768Z,44.90
2019-03-30T19:32:55.336Z,42.90
2019-03-30T19:35:23.912Z,43.77
2019-03-30T19:37:52.982Z,45.77
2019-03-30T19:40:21.735Z,45.10
2019-03-30T19:42:50.293Z,46.73
2019-03-30T19:45:18.867Z,45.30
2019-03-30T19:47:47.730Z,45.77
2019-03-30T19:50:16.417Z,44.47
2019-03-30T19:52:44.992Z,42.10
2019-03-30T19:55:13.650Z,46.50
2019-03-30T19:57:42.294Z,45.40
2019-03-30T20:00:12.713Z,44.30
2019-03-30T20:02:41.444Z,44.77
2019-03-30T20:05:10.493Z,44.80
2019-03-30T20:07:39.070Z,45.33
2019-03-30T20:10:07.951Z,45.10
2019-03-30T20:12:37.345Z,42.93
2019-03-30T20:15:07.322Z,44.63
2019-03-30T20:17:35.913Z,43.93
2019-03-30T20:20:05.848Z,41.60
2019-03-30T20:22:34.430Z,40.50
2019-03-30T20:25:03.146Z,41.97
2019-03-30T20:27:31.816Z,42.53
2019-03-30T20:30:00.706Z,43.50
2019-03-30T20:32:29.297Z,44.80
2019-03-30T20:34:57.969Z,44.27
2019-03-30T20:37:26.531Z,43.80
2019-03-30T20:39:55.191Z,43.17
2019-03-30T20:42:23.833Z,42.60
2019-03-30T20:44:52.429Z,44.50
2019-03-30T20:47:21.011Z,42.23
2019-03-30T20:49:49.913Z,43.90
2019-03-30T20:52:18.546Z,41.50
2019-03-30T20:54:47.123Z,42.90
2019-03-30T20:57:15.698Z,44.47
2019-03-30T20:59:44.294Z,43.30
2019-03-30T21:02:12.949Z,42.50
2019-03-30T21:04:41.960Z,43.87
2019-03-30T21:07:10.608Z,43.73
2019-03-30T21:09:39.340Z,46.50
2019-03-30T21:12:08.671Z,46.37
2019-03-30T21:14:37.365Z,45.40
2019-03-30T21:17:05.906Z,43.00
2019-03-30T21:19:34.583Z,45.00
2019-03-30T21:22:03.631Z,45.20
2019-03-30T21:24:32.587Z,42.97
2019-03-30T21:27:01.166Z,48.10
2019-03-30T21:29:29.766Z,49.50
2019-03-30T21:31:58.332Z,43.93
2019-03-30T21:34:27.242Z,44.47
2019-03-30T21:36:55.817Z,45.47
2019-03-30T21:39:24.407Z,45.67
2019-03-30T21:41:53.445Z,45.13
2019-03-30T21:44:22.607Z,49.13
2019-03-30T21:46:51.392Z,45.87
2019-03-30T21:49:19.991Z,47.23
2019-03-30T21:51:48.548Z,46.10
2019-03-30T21:54:17.148Z,49.77
2019-03-30T21:56:45.741Z,44.77
2019-03-30T21:59:14.354Z,47.13
2019-03-30T22:01:42.916Z,47.10
2019-03-30T22:04:11.574Z,43.63
2019-03-30T22:06:40.217Z,43.43
2019-03-30T22:09:09.290Z,44.40
2019-03-30T22:11:37.901Z,48.53
2019-03-30T22:14:06.639Z,46.07
2019-03-30T22:16:35.176Z,46.47
2019-03-30T22:19:03.895Z,45.93
2019-03-30T22:21:32.509Z,45.73
2019-03-30T22:24:01.077Z,49.23
2019-03-30T22:26:29.684Z,50.10
2019-03-30T22:28:58.638Z,52.37
2019-03-30T22:31:27.301Z,47.57
2019-03-30T22:33:55.940Z,62.80
2019-03-30T22:36:24.596Z,63.80
2019-03-30T22:38:53.169Z,54.03
2019-03-30T22:41:21.759Z,52.73
2019-03-30T22:43:50.331Z,53.33
2019-03-30T22:46:19.275Z,52.80
2019-03-30T22:48:47.849Z,51.60
2019-03-30T22:51:16.458Z,50.77
2019-03-30T22:53:45.086Z,52.23
2019-03-30T22:56:13.757Z,52.03
2019-03-30T22:58:42.404Z,52.17
2019-03-30T23:01:12.629Z,57.57
2019-03-30T23:03:41.212Z,59.70
2019-03-30T23:06:09.933Z,60.67
2019-03-30T23:08:38.504Z,58.67
2019-03-30T23:11:07.166Z,58.47
2019-03-30T23:13:35.789Z,58.63
2019-03-30T23:16:04.788Z,57.27
2019-03-30T23:18:33.409Z,65.23
2019-03-30T23:21:01.996Z,62.27
2019-03-30T23:23:30.634Z,61.80
2019-03-30T23:25:59.280Z,61.87
2019-03-30T23:28:27.834Z,62.33
2019-03-30T23:30:56.422Z,65.00
2019-03-30T23:33:24.985Z,66.90
2019-03-30T23:35:53.987Z,67.27
2019-03-30T23:38:22.553Z,66.00
2019-03-30T23:40:51.137Z,69.43
2019-03-30T23:43:19.861Z,74.50
2019-03-30T23:45:48.748Z,74.40
2019-03-30T23:48:17.342Z,72.67
2019-03-30T23:50:45.920Z,75.20
2019-03-30T23:53:14.595Z,76.60
2019-03-30T23:55:43.257Z,76.70
2019-03-30T23:58:11.822Z,75.73
